createdAt,value
2023-01-09T16:38:52.810Z,7.88
2023-01-09T16:39:52.709Z,7.83
2023-01-09T16:40:52.617Z,7.76
2023-01-09T16:41:52.529Z,7.82
2023-01-09T16:42:52.453Z,7.79
2023-01-09T16:43:52.367Z,7.75
2023-01-09T16:44:52.285Z,7.76
2023-01-09T16:45:52.262Z,7.72
2023-01-09T16:46:52.121Z,7.81
2023-01-09T16:47:52.029Z,7.83
2023-01-09T16:48:52.047Z,7.88
2023-01-09T16:49:51.862Z,7.88
2023-01-09T16:50:51.782Z,7.86
2023-01-09T16:51:51.704Z,7.85
2023-01-09T16:52:51.617Z,7.88
2023-01-09T16:53:51.529Z,7.90
2023-01-09T16:54:51.470Z,7.94
2023-01-09T16:55:51.361Z,7.83
2023-01-09T16:56:51.276Z,7.86
2023-01-09T16:57:51.193Z,7.96
2023-01-09T16:58:51.114Z,7.88
2023-01-09T16:59:51.029Z,7.86
2023-01-09T17:00:51.035Z,7.88
2023-01-09T17:01:50.865Z,7.78
2023-01-09T17:02:50.828Z,7.86
2023-01-09T17:03:50.709Z,7.91
2023-01-09T17:04:50.615Z,7.88
2023-01-09T17:05:50.541Z,7.85
2023-01-09T17:06:50.441Z,7.88
2023-01-09T17:07:50.357Z,7.86
2023-01-09T17:08:50.274Z,7.90
2023-01-09T17:09:50.188Z,7.85
2023-01-09T17:10:50.128Z,7.93
2023-01-09T17:11:50.032Z,7.88
2023-01-09T17:12:49.950Z,7.85
2023-01-09T17:13:49.856Z,7.91
2023-01-09T17:14:49.773Z,7.85
2023-01-09T17:15:49.692Z,7.86
2023-01-09T17:16:49.681Z,7.88
2023-01-09T17:17:49.517Z,7.86
2023-01-09T17:18:49.438Z,7.83
2023-01-09T17:19:49.349Z,7.81
2023-01-09T17:20:49.468Z,7.88
2023-01-09T17:21:49.218Z,7.83
2023-01-09T17:22:49.106Z,7.90
2023-01-09T17:23:49.017Z,7.75
2023-01-09T17:24:48.934Z,7.79
2023-01-09T17:25:48.849Z,7.73
2023-01-09T17:26:48.786Z,7.73
2023-01-09T17:27:48.682Z,7.72
2023-01-09T17:28:48.616Z,7.76
2023-01-09T17:29:48.521Z,7.73
2023-01-09T17:30:48.432Z,7.72
2023-01-09T17:31:48.699Z,7.70
2023-01-09T17:32:48.267Z,7.70
2023-01-09T17:33:48.213Z,7.73
2023-01-09T17:34:48.097Z,7.67
2023-01-09T17:35:48.010Z,7.63
2023-01-09T17:36:48.094Z,7.60
2023-01-09T17:37:47.894Z,7.70
2023-01-09T17:38:47.761Z,7.68
2023-01-09T17:39:47.679Z,7.68
2023-01-09T17:40:47.595Z,7.57
2023-01-09T17:41:47.513Z,7.49
2023-01-09T17:42:47.695Z,7.47
2023-01-09T17:43:47.390Z,7.48
2023-01-09T17:44:47.260Z,7.52
2023-01-09T17:45:47.195Z,7.48
2023-01-09T17:46:47.089Z,7.49
2023-01-09T17:47:47.009Z,7.42
2023-01-09T17:48:46.922Z,7.49
2023-01-09T17:49:46.839Z,7.48
2023-01-09T17:50:46.756Z,7.48
2023-01-09T17:51:46.677Z,7.49
2023-01-09T17:52:46.586Z,7.42
2023-01-09T17:53:46.503Z,7.37
2023-01-09T17:54:46.419Z,7.37
2023-01-09T17:55:46.344Z,7.31
2023-01-09T17:56:46.275Z,7.23
2023-01-09T17:57:46.165Z,7.20
2023-01-09T17:58:46.504Z,7.23
2023-01-09T17:59:46.000Z,7.26
2023-01-09T18:00:45.915Z,7.23
2023-01-09T18:01:45.872Z,7.29
2023-01-09T18:02:45.770Z,7.29
2023-01-09T18:03:45.664Z,7.19
2023-01-09T18:04:45.589Z,7.20
2023-01-09T18:05:45.745Z,7.17
2023-01-09T18:06:45.415Z,7.24
2023-01-09T18:07:45.334Z,7.21
2023-01-09T18:08:45.255Z,7.17
2023-01-09T18:09:45.162Z,7.16
2023-01-09T18:10:45.073Z,7.17
2023-01-09T18:11:44.999Z,7.11
2023-01-09T18:12:44.906Z,7.21
2023-01-09T18:13:44.818Z,7.29
2023-01-09T18:14:44.763Z,7.19
2023-01-09T18:15:44.652Z,7.13
2023-01-09T18:16:44.709Z,7.19
2023-01-09T18:17:44.502Z,7.26
2023-01-09T18:18:44.401Z,7.24
2023-01-09T18:19:44.316Z,7.24
2023-01-09T18:20:44.237Z,7.21
2023-01-09T18:21:44.146Z,7.16
2023-01-09T18:22:44.064Z,7.27
2023-01-09T18:23:43.980Z,7.21
2023-01-09T18:24:43.894Z,7.21
2023-01-09T18:25:43.811Z,7.23
2023-01-09T18:26:43.723Z,7.13
2023-01-09T18:27:43.643Z,7.13
2023-01-09T18:28:43.605Z,7.19
2023-01-09T18:29:43.467Z,7.17
2023-01-09T18:30:43.410Z,7.08
2023-01-09T18:31:43.394Z,7.12
2023-01-09T18:32:43.222Z,7.08
2023-01-09T18:33:43.131Z,6.99
2023-01-09T18:34:43.051Z,7.02
2023-01-09T18:35:42.961Z,7.08
2023-01-09T18:36:42.893Z,7.09
2023-01-09T18:37:42.798Z,7.01
2023-01-09T18:38:42.709Z,7.05
2023-01-09T18:39:42.621Z,6.91
2023-01-09T18:40:42.537Z,6.94
2023-01-09T18:41:42.451Z,6.93
2023-01-09T18:42:42.717Z,6.94
2023-01-09T18:43:42.282Z,6.96
2023-01-09T18:44:42.205Z,6.91
2023-01-09T18:45:42.130Z,6.91
2023-01-09T18:46:42.075Z,6.91
2023-01-09T18:47:41.949Z,6.94
2023-01-09T18:48:41.859Z,6.94
2023-01-09T18:49:41.776Z,6.96
2023-01-09T18:50:41.689Z,6.88
2023-01-09T18:51:41.604Z,6.93
2023-01-09T18:52:41.519Z,6.87
2023-01-09T18:53:41.445Z,6.93
2023-01-09T18:54:41.352Z,6.83
2023-01-09T18:55:41.265Z,6.96
2023-01-09T18:56:41.182Z,6.93
2023-01-09T18:57:41.092Z,6.90
2023-01-09T18:58:41.009Z,6.98
2023-01-09T18:59:40.925Z,6.91
2023-01-09T19:00:40.977Z,6.88
2023-01-09T19:01:40.751Z,6.86
2023-01-09T19:02:40.690Z,6.96
2023-01-09T19:03:40.672Z,6.87
2023-01-09T19:04:40.501Z,6.93
2023-01-09T19:05:40.414Z,6.83
2023-01-09T19:06:40.332Z,6.98
2023-01-09T19:07:40.246Z,6.99
2023-01-09T19:08:40.177Z,6.86
2023-01-09T19:09:40.226Z,6.96
2023-01-09T19:14:53.767Z,6.99
2023-01-09T19:15:53.673Z,6.94
2023-01-09T19:16:53.628Z,6.93
2023-01-09T19:17:53.623Z,6.96
2023-01-09T19:18:53.436Z,6.99
2023-01-09T19:19:53.337Z,6.93
2023-01-09T19:20:53.254Z,6.96
2023-01-09T19:21:53.169Z,6.90
2023-01-09T19:22:53.084Z,6.87
2023-01-09T19:23:53.016Z,6.81
2023-01-09T19:24:53.113Z,6.84
2023-01-09T19:25:52.827Z,6.84
2023-01-09T19:26:52.744Z,6.87
2023-01-09T19:27:52.658Z,6.93
2023-01-09T19:28:52.577Z,6.84
2023-01-09T19:29:52.489Z,6.73
2023-01-09T19:30:52.407Z,6.84
2023-01-09T19:31:52.419Z,6.90
2023-01-09T19:32:52.260Z,6.88
2023-01-09T19:33:52.166Z,6.87
2023-01-09T19:34:52.064Z,6.91
2023-01-09T19:35:51.981Z,6.84
2023-01-09T19:36:51.980Z,6.87
2023-01-09T19:37:51.814Z,6.86
2023-01-09T19:38:51.728Z,6.86
2023-01-09T19:39:51.643Z,6.81
2023-01-09T19:40:51.570Z,6.78
2023-01-09T19:41:51.490Z,6.86
2023-01-09T19:42:51.391Z,6.75
2023-01-09T19:43:51.315Z,6.75
2023-01-09T19:44:51.232Z,6.75
2023-01-09T19:45:51.179Z,6.78
2023-01-09T19:46:51.065Z,6.73
2023-01-09T19:47:50.970Z,6.73
2023-01-09T19:48:50.891Z,6.75
2023-01-09T19:49:50.825Z,6.70
2023-01-09T19:50:50.753Z,6.76
2023-01-09T19:51:50.635Z,6.73
2023-01-09T19:52:50.544Z,6.70
2023-01-09T19:53:50.464Z,6.76
2023-01-09T19:54:50.375Z,6.73
2023-01-09T19:55:50.299Z,6.72
2023-01-09T19:56:50.213Z,6.75
2023-01-09T19:57:50.168Z,6.73
2023-01-09T19:58:50.040Z,6.80
2023-01-09T19:59:49.952Z,6.80
2023-01-09T20:00:49.940Z,6.81
2023-01-09T20:01:49.808Z,6.75
2023-01-09T20:02:49.698Z,6.69
2023-01-09T20:03:49.614Z,6.75
2023-01-09T20:04:49.730Z,6.78
2023-01-09T20:05:49.465Z,6.75
2023-01-09T20:06:49.366Z,6.76
2023-01-09T20:07:49.281Z,6.80
2023-01-09T20:08:49.200Z,6.69
2023-01-09T20:09:49.121Z,6.73
2023-01-09T20:10:49.026Z,6.78
2023-01-09T20:11:48.936Z,6.76
2023-01-09T20:12:48.855Z,6.73
2023-01-09T20:13:48.767Z,6.78
2023-01-09T20:14:48.833Z,6.78
2023-01-09T20:15:48.878Z,6.84
2023-01-09T20:16:48.674Z,6.75
2023-01-09T20:17:48.430Z,6.81
2023-01-09T20:18:48.350Z,6.80
2023-01-09T20:19:48.261Z,6.75
2023-01-09T20:20:48.227Z,6.83
2023-01-09T20:21:48.129Z,6.78
2023-01-09T20:22:48.012Z,6.87
2023-01-09T20:23:47.927Z,6.76
2023-01-09T20:24:47.842Z,6.86
2023-01-09T20:25:47.757Z,6.80
2023-01-09T20:26:47.675Z,6.83
2023-01-09T20:27:47.587Z,6.83
2023-01-09T20:28:47.513Z,6.80
2023-01-09T20:29:47.419Z,6.81
2023-01-09T20:30:47.336Z,6.86
2023-01-09T20:31:47.328Z,6.90
2023-01-09T20:32:47.264Z,6.90
2023-01-09T20:33:47.079Z,6.87
2023-01-09T20:34:46.997Z,6.91
2023-01-09T20:36:49.475Z,6.83
2023-01-09T20:37:49.340Z,6.84
2023-01-09T20:41:15.155Z,6.93
2023-01-09T20:42:14.766Z,6.78
2023-01-09T20:43:14.683Z,6.81
2023-01-09T20:44:14.614Z,6.78
2023-01-09T20:45:14.517Z,6.80
2023-01-09T20:47:01.908Z,6.83
2023-01-09T20:48:01.826Z,6.78
2023-01-09T20:49:01.738Z,6.87
2023-01-09T20:50:01.654Z,6.86
2023-01-09T20:51:01.571Z,6.83
2023-01-09T20:52:01.496Z,6.80
2023-01-09T20:53:01.431Z,6.86
2023-01-09T20:55:28.968Z,6.70
2023-01-09T20:56:28.883Z,6.69
2023-01-09T20:57:28.806Z,6.73
2023-01-09T20:58:28.857Z,6.70
2023-01-09T20:59:28.635Z,6.75
2023-01-09T21:00:28.547Z,6.78
2023-01-09T21:01:28.462Z,6.76
2023-01-09T21:02:28.407Z,6.69
2023-01-09T21:03:28.293Z,6.81
2023-01-09T21:04:28.233Z,6.75
2023-01-09T21:05:28.128Z,6.78
2023-01-09T21:06:28.082Z,6.83
2023-01-09T21:07:27.953Z,6.83
2023-01-09T21:08:27.891Z,6.81
2023-01-09T21:09:27.784Z,6.76
2023-01-09T21:10:27.705Z,6.78
2023-01-09T21:11:27.668Z,6.86
2023-01-09T21:12:27.612Z,6.76
2023-01-09T21:13:27.448Z,6.84
2023-01-09T21:14:27.446Z,6.73
2023-01-09T21:15:27.281Z,6.73
2023-01-09T21:16:27.225Z,6.72
2023-01-09T21:17:27.257Z,6.75
2023-01-09T21:18:27.022Z,6.73
2023-01-09T21:19:26.950Z,6.70
2023-01-09T21:20:26.853Z,6.63
2023-01-09T21:21:26.768Z,6.63
2023-01-09T21:22:26.687Z,6.63
2023-01-09T21:23:26.749Z,6.66
2023-01-09T21:24:26.533Z,6.60
2023-01-09T21:25:26.440Z,6.63
2023-01-09T21:26:26.344Z,6.65
2023-01-09T21:27:26.271Z,6.75
2023-01-09T21:28:26.179Z,6.63
2023-01-09T21:29:26.090Z,6.62
2023-01-09T21:30:26.061Z,6.59
2023-01-09T21:31:25.990Z,6.54
2023-01-09T21:32:25.835Z,6.55
2023-01-09T21:33:25.757Z,6.54
2023-01-09T21:34:25.665Z,6.52
2023-01-09T21:35:25.583Z,6.54
2023-01-09T21:36:25.545Z,6.55
2023-01-09T21:37:25.412Z,6.54
2023-01-09T21:38:25.325Z,6.51
2023-01-09T21:39:25.244Z,6.59
2023-01-09T21:40:25.681Z,6.65
2023-01-09T21:42:17.608Z,6.66
2023-01-09T21:43:17.470Z,6.72
2023-01-09T21:44:17.385Z,6.69
2023-01-09T21:45:17.299Z,6.68
2023-01-09T21:46:17.216Z,6.70
2023-01-09T21:47:17.281Z,6.70
2023-01-09T21:48:17.052Z,6.75
2023-01-09T21:49:16.962Z,6.80
2023-01-09T21:50:17.545Z,6.91
2023-01-09T21:51:16.792Z,6.88
2023-01-09T21:52:16.708Z,6.88
2023-01-09T21:53:16.627Z,6.88
2023-01-09T21:54:16.555Z,6.86
2023-01-09T21:55:16.477Z,6.87
2023-01-09T21:56:16.390Z,6.91
2023-01-09T21:57:16.288Z,6.86
2023-01-09T21:58:16.200Z,6.93
2023-01-09T21:59:16.116Z,6.94
2023-01-09T22:00:16.037Z,6.81
2023-01-09T22:01:16.134Z,6.86
2023-01-09T22:02:15.961Z,6.91
2023-01-09T22:03:15.777Z,6.96
2023-01-09T22:04:15.850Z,6.91
2023-01-09T22:05:15.959Z,6.98
2023-01-09T22:06:15.524Z,6.98
2023-01-09T22:07:15.439Z,6.94
2023-01-09T22:08:15.356Z,6.96
2023-01-09T22:09:15.277Z,6.93
2023-01-09T22:10:15.187Z,7.02
2023-01-09T22:11:16.242Z,7.05
2023-01-09T22:12:15.060Z,7.01
2023-01-09T22:13:14.935Z,7.09
2023-01-09T22:14:14.847Z,6.98
2023-01-09T22:15:14.765Z,7.12
2023-01-09T22:16:14.713Z,7.16
2023-01-09T22:17:14.595Z,7.17
2023-01-09T22:18:14.524Z,7.08
2023-01-09T22:19:14.434Z,7.09
2023-01-09T22:20:14.340Z,7.13
2023-01-09T22:21:14.255Z,7.05
2023-01-09T22:22:14.188Z,7.06
2023-01-09T22:23:14.091Z,7.02
2023-01-09T22:24:14.004Z,7.06
2023-01-09T22:25:13.916Z,7.03
2023-01-09T22:26:13.840Z,7.03
2023-01-09T22:27:13.753Z,7.12
2023-01-09T22:28:13.689Z,7.03
2023-01-09T22:29:13.579Z,7.05
2023-01-09T22:30:13.494Z,6.98
2023-01-09T22:31:13.495Z,7.09
2023-01-09T22:32:13.332Z,7.05
2023-01-09T22:33:13.260Z,7.11
2023-01-09T22:34:13.155Z,7.06
2023-01-09T22:35:13.074Z,6.99
2023-01-09T22:36:12.987Z,7.09
2023-01-09T22:37:12.914Z,7.09
2023-01-09T22:38:12.818Z,7.06
2023-01-09T22:39:12.732Z,7.03
2023-01-09T22:40:12.651Z,7.02
2023-01-09T22:41:12.562Z,7.08
2023-01-09T22:42:12.502Z,7.13
2023-01-09T22:43:12.397Z,7.17
2023-01-09T22:44:12.351Z,7.11
2023-01-09T22:45:12.240Z,7.17
2023-01-09T22:46:12.168Z,7.08
2023-01-09T22:47:12.059Z,7.09
2023-01-09T22:48:11.981Z,7.17
2023-01-09T22:49:11.920Z,7.12
2023-01-09T22:50:11.816Z,7.16
2023-01-09T22:51:11.717Z,7.17
2023-01-09T22:52:11.635Z,7.13
2023-01-09T22:53:11.552Z,7.08
2023-01-09T22:54:11.487Z,7.16
2023-01-09T22:55:11.579Z,7.17
2023-01-09T22:56:11.296Z,7.12
2023-01-09T22:57:11.227Z,7.17
2023-01-09T22:58:11.129Z,7.13
2023-01-09T22:59:11.042Z,7.06
2023-01-09T23:00:10.979Z,7.05
2023-01-09T23:01:10.881Z,7.09
2023-01-09T23:02:10.933Z,7.12
2023-01-09T23:03:10.793Z,7.16
2023-01-09T23:04:10.620Z,7.09
2023-01-09T23:05:10.549Z,7.02
2023-01-09T23:06:10.502Z,7.08
2023-01-09T23:07:10.368Z,7.02
2023-01-09T23:08:10.281Z,7.11
2023-01-09T23:09:10.199Z,7.16
2023-01-09T23:10:10.129Z,7.09
2023-01-09T23:11:10.285Z,7.13
2023-01-09T23:12:09.944Z,7.11
2023-01-09T23:13:09.863Z,7.19
2023-01-09T23:14:09.776Z,7.11
2023-01-09T23:15:09.700Z,7.11
2023-01-09T23:16:09.628Z,7.06
2023-01-09T23:17:09.525Z,7.08
2023-01-09T23:18:09.591Z,7.17
2023-01-09T23:19:09.365Z,7.09
2023-01-09T23:20:09.272Z,7.11
2023-01-09T23:21:09.192Z,7.20
2023-01-09T23:22:09.110Z,7.17
2023-01-09T23:23:09.020Z,7.20
2023-01-09T23:24:08.937Z,7.21
2023-01-09T23:25:08.856Z,7.16
2023-01-09T23:26:08.821Z,7.12
2023-01-09T23:27:08.720Z,7.20
2023-01-09T23:28:08.602Z,7.16
2023-01-09T23:29:08.515Z,7.13
2023-01-09T23:30:08.435Z,7.21
2023-01-09T23:31:08.453Z,7.21
2023-01-09T23:32:08.325Z,7.17
2023-01-09T23:33:08.198Z,7.23
2023-01-09T23:34:08.177Z,7.29
2023-01-09T23:35:08.028Z,7.20
2023-01-09T23:36:07.931Z,7.29
2023-01-09T23:37:07.970Z,7.26
2023-01-09T23:38:07.762Z,7.24
2023-01-09T23:39:07.678Z,7.27
2023-01-09T23:40:07.607Z,7.30
2023-01-09T23:41:07.515Z,7.17
2023-01-09T23:42:07.638Z,7.16
2023-01-09T23:43:07.343Z,7.29
2023-01-09T23:44:07.265Z,7.23
2023-01-09T23:45:07.175Z,7.17
2023-01-09T23:46:07.245Z,7.12
2023-01-09T23:47:07.028Z,7.16
2023-01-09T23:48:06.950Z,7.16
2023-01-09T23:49:06.841Z,7.12
2023-01-09T23:50:06.767Z,7.16
2023-01-09T23:51:06.672Z,7.17
2023-01-09T23:52:06.600Z,7.19
2023-01-09T23:53:06.506Z,7.11
2023-01-09T23:54:06.425Z,7.20
2023-01-09T23:55:06.338Z,7.24
2023-01-09T23:56:06.261Z,7.13
2023-01-09T23:57:06.166Z,7.27
2023-01-09T23:58:06.085Z,7.24
2023-01-09T23:59:06.003Z,7.12
